Avon, MA (02322)

8:24 PM EDT on August 21, 2014 (GMT -0400)
Allie's Weather | Change Station
CLOSE
Current Station
Personal Weather Station
Location: Avon, MA
Elevation: 0 ft
Nearby Weather Stations

Elev 0 ft 42.11 °N, 71.06 °W | Updated 182 days ago

Partly Cloudy
Partly Cloudy
62 °F
Feels Like 62 °F
N
5
Wind Variable Wind from East
Gusts 9 mph

Today
High -- | Low -- °F
--% Chance of Precip.
Yesterday
High -- | Low -- °F
Precip. -- in
5:58 AM 7:35 PM
Waning Crescent, 11% visible
Pressure 30.07 in
Visibility 10.0 miles
Clouds Mostly Cloudy 4000 ft
Overcast 6000 ft
Dew Point 60 °F
Humidity 91%
Rainfall 0.00 in
Snow Depth Not available.
UV 0 out of 12
Pollen 8.20 out of 12
Ozone Good
PM2.5 Good
Flu Activity Not available.
METAR KOWD 212353Z 09006KT 10SM BKN040 OVC060 21/16 A3007 RMK AO2 SLP181 T02110161 10256 20211 53005

More Conditions Fewer Conditions

Pressure 30.07 in
Visibility 10.0 miles
Clouds Mostly Cloudy 4000 ft
Overcast 6000 ft
Dew Point 60 °F
Humidity 91%
Rainfall 0.00 in
Snow Depth Not available.
UV 0 out of 12
Pollen 8.20 out of 12
Ozone Good
PM2.5 Good
Flu Activity Not available.
METAR KOWD 212353Z 09006KT 10SM BKN040 OVC060 21/16 A3007 RMK AO2 SLP181 T02110161 10256 20211 53005

More Conditions Fewer Conditions

10-Day Weather Forecast

Almanac

Astronomy

Aug. 21, 2014 Rise Set
Actual Time 5:58 AM EDT 7:35 PM EDT
Civil Twilight 5:28 AM EDT 8:05 PM EDT
Nautical Twilight 4:52 AM EDT 8:41 PM EDT
Astronomical Twilight 4:14 AM EDT 9:19 PM EDT
Moon 2:23 AM EDT (8/21) 5:03 PM EDT (8/21)
Length of Visible Light 14h 36m
Length of Day
13h 37m
Tomorrow will be 2m 36s shorter.
Waning Crescent, 11% of the Moon is Illuminated
Today
Waning Crescent
Aug 25
New
Sep 2
First Quarter
Sep 8
Full
Sep 15
Last Quarter

Today's Extremes

State Highs State Lows

Community

WunderPhotos

Upload Photos

1,746,075 photos uploaded!

Nearby

Air Quality

  Air Quality AQ Index Pollutant
Yesterday Good
PM2.5
Yesterday Good
OZONE
Current Good
PM2.5
Current Good
OZONE
Thursday Good
PM2.5
Thursday Good
OZONE
Friday Good
PM2.5
Friday Good
OZONE

Snow Depth

Station Depth Elevation
No new snow has been reported.

Earthquake Activity

City Distance Mag. Time & Date
No recent earthquake activity has been reported nearby.
Minimum magnitude displayed is 2.5.

Coastal Water Temperatures

Place Temperature
Boston, MA 64.9 °F
Providence, RI 73.0 °F
Fall River, MA 75.0 °F
Conimicut Light, RI 73.9 °F

Nearby Weather Stations